Time;durP1;ratioP1;P1;durP2;ratioP2;P2;SDS_P1;SDS_P2;PMS_P1;PMS_P2;Temp;Humidity;BMP_temperature;BMP_pressure;BME280_temperature;BME280_humidity;BME280_pressure;Samples;Min_cycle;Max_cycle;Signal;HPM_P1;HPM_P2
2022/01/08 08:57:22;;;;;;;34.57;12.10;;;1.40;99.90;;;;;;5091834;27;20389;-62
2022/01/08 08:59:48;;;;;;;33.33;14.15;;;1.50;99.90;;;;;;5091258;28;20102;-63
2022/01/08 09:02:14;;;;;;;29.88;13.35;;;1.40;99.90;;;;;;5090731;28;20059;-64
2022/01/08 09:04:41;;;;;;;27.45;12.45;;;1.40;99.90;;;;;;5058255;28;20047;-62
2022/01/08 09:07:08;;;;;;;23.73;12.03;;;2.10;99.90;;;;;;5053046;28;20045;-62
2022/01/08 09:09:33;;;;;;;25.15;10.82;;;1.50;99.90;;;;;;5070634;28;20496;-65
2022/01/08 09:11:59;;;;;;;26.00;11.43;;;2.10;99.90;;;;;;5070834;28;20044;-63
2022/01/08 09:14:25;;;;;;;27.38;9.93;;;1.70;99.90;;;;;;5069397;28;20091;-64
2022/01/08 09:16:57;;;;;;;21.60;9.00;;;1.50;99.90;;;;;;5069413;28;20045;-63
2022/01/08 09:19:25;;;;;;;21.50;8.55;;;1.50;99.90;;;;;;5103875;28;20063;-63
2022/01/08 09:21:51;;;;;;;23.13;8.27;;;1.60;99.90;;;;;;5070639;28;20448;-62
2022/01/08 09:24:20;;;;;;;;;;;1.60;99.90;;;;;;5070873;28;20522;-62
2022/01/08 09:26:48;;;;;;;17.65;7.65;;;1.60;99.90;;;;;;5070392;28;19920;-62
2022/01/08 09:29:15;;;;;;;22.35;7.55;;;1.60;99.90;;;;;;5069348;28;20049;-62
2022/01/08 09:31:40;;;;;;;17.73;6.95;;;1.70;99.90;;;;;;5070925;28;20393;-62
2022/01/08 09:34:07;;;;;;;21.80;6.85;;;1.70;99.90;;;;;;5070283;28;20053;-62
2022/01/08 09:36:33;;;;;;;;;;;1.70;99.90;;;;;;5070601;28;20048;-63
2022/01/08 09:38:59;;;;;;;22.05;7.20;;;1.80;99.90;;;;;;5070290;28;19921;-63
2022/01/08 09:41:24;;;;;;;18.33;6.45;;;1.80;99.90;;;;;;5069179;28;20499;-61
2022/01/08 09:43:50;;;;;;;16.15;6.65;;;1.90;99.90;;;;;;5070109;28;20041;-63
2022/01/08 09:46:17;;;;;;;17.88;5.95;;;1.90;99.90;;;;;;5069848;28;20528;-63
2022/01/08 09:48:43;;;;;;;;;;;2.00;99.90;;;;;;5070453;28;20040;-63
2022/01/08 09:51:09;;;;;;;20.58;5.32;;;2.50;99.90;;;;;;5069991;28;19943;-62
2022/01/08 09:53:35;;;;;;;21.08;5.75;;;2.10;99.90;;;;;;5068849;28;20063;-63
2022/01/08 09:56:02;;;;;;;20.17;5.05;;;2.10;99.90;;;;;;5069661;28;20063;-63
2022/01/08 09:58:28;;;;;;;17.25;5.45;;;2.10;99.90;;;;;;5069834;28;20174;-62
2022/01/08 10:00:54;;;;;;;23.85;5.40;;;2.10;99.90;;;;;;5068972;28;20041;-63
2022/01/08 10:03:31;;;;;;;17.17;5.20;;;2.30;99.90;;;;;;5065863;28;20106;-62
2022/01/08 10:05:58;;;;;;;15.20;4.57;;;2.20;99.90;;;;;;5060627;28;20045;-63
2022/01/08 10:08:27;;;;;;;15.25;4.85;;;2.20;99.90;;;;;;5042012;28;20053;-64
2022/01/08 10:11:06;;;;;;;12.93;5.28;;;2.30;99.90;;;;;;5036479;28;20045;-63
2022/01/08 10:13:40;;;;;;;15.68;4.82;;;2.30;99.90;;;;;;5035524;28;20057;-63
2022/01/08 10:18:58;;;;;;;17.00;5.13;;;2.40;99.90;;;;;;5035944;28;20513;-63
2022/01/08 10:21:29;;;;;;;17.50;5.13;;;2.30;99.90;;;;;;5036196;28;20091;-63
2022/01/08 10:24:00;;;;;;;14.38;4.97;;;2.50;99.90;;;;;;5036032;28;20042;-64
2022/01/08 10:26:31;;;;;;;12.70;4.72;;;2.40;99.90;;;;;;5036381;28;20077;-64
2022/01/08 10:29:00;;;;;;;17.83;5.68;;;2.40;99.90;;;;;;5036397;28;20060;-63
2022/01/08 10:31:28;;;;;;;15.48;5.07;;;2.40;99.90;;;;;;5035968;28;20107;-63
2022/01/08 10:34:02;;;;;;;12.80;5.35;;;2.50;99.90;;;;;;5036235;28;20137;-63
2022/01/08 10:36:33;;;;;;;14.52;4.70;;;2.50;99.90;;;;;;5035942;28;20156;-63
2022/01/08 10:39:05;;;;;;;15.63;5.22;;;2.50;99.90;;;;;;5036281;28;20528;-63
2022/01/08 10:41:51;;;;;;;19.27;5.95;;;2.50;99.90;;;;;;5067008;28;20426;-64
2022/01/08 10:44:36;;;;;;;14.65;5.78;;;2.60;99.90;;;;;;5075652;28;20063;-64
2022/01/08 10:47:02;;;;;;;17.50;6.53;;;2.60;99.90;;;;;;5057215;28;20079;-63
2022/01/08 10:49:41;;;;;;;20.27;6.07;;;2.60;99.90;;;;;;5055641;28;20089;-62
2022/01/08 10:52:11;;;;;;;16.63;6.40;;;2.70;99.90;;;;;;5056110;28;20048;-62
2022/01/08 10:54:48;;;;;;;17.83;7.25;;;2.70;99.90;;;;;;5055145;28;20048;-62
2022/01/08 10:57:14;;;;;;;17.20;7.20;;;2.70;99.90;;;;;;5054058;28;20057;-62
2022/01/08 10:59:40;;;;;;;;;;;2.70;99.90;;;;;;5053971;28;20489;-62
2022/01/08 11:02:08;;;;;;;18.77;7.20;;;2.70;99.90;;;;;;5054818;28;19970;-61
2022/01/08 11:04:47;;;;;;;16.80;6.80;;;2.70;99.90;;;;;;5055260;28;20057;-64
2022/01/08 11:07:16;;;;;;;17.85;7.38;;;2.80;99.90;;;;;;5055477;28;20550;-64
2022/01/08 11:09:44;;;;;;;19.92;7.68;;;2.80;99.90;;;;;;5055769;28;20109;-63
2022/01/08 11:12:16;;;;;;;19.02;7.50;;;2.80;99.90;;;;;;5055235;28;20040;-63
2022/01/08 11:17:18;;;;;;;17.42;7.00;;;2.80;99.90;;;;;;5055587;28;20132;-64
2022/01/08 11:19:46;;;;;;;16.58;8.27;;;2.90;99.90;;;;;;5054043;28;20084;-63
2022/01/08 11:22:14;;;;;;;20.17;8.57;;;2.90;99.90;;;;;;5055597;28;20163;-63
2022/01/08 11:25:08;;;;;;;21.08;9.23;;;3.00;99.90;;;;;;5054888;28;20123;-62
2022/01/08 11:27:40;;;;;;;26.02;9.93;;;2.90;99.90;;;;;;5055321;28;20409;-63
2022/01/08 11:30:11;;;;;;;15.95;7.97;;;2.90;99.90;;;;;;5055207;28;20064;-63
2022/01/08 11:32:37;;;;;;;16.85;9.20;;;3.00;99.90;;;;;;5054870;28;20049;-63
2022/01/08 11:35:06;;;;;;;20.00;11.30;;;3.00;99.90;;;;;;5054622;28;20064;-64
2022/01/08 11:37:32;;;;;;;15.98;8.43;;;3.00;99.90;;;;;;5054563;28;20109;-62
2022/01/08 11:40:02;;;;;;;;;;;3.10;99.90;;;;;;5054842;28;20044;-63
2022/01/08 11:42:31;;;;;;;18.38;8.13;;;3.10;99.90;;;;;;5054559;28;20431;-63
2022/01/08 11:44:59;;;;;;;20.02;10.70;;;3.20;99.90;;;;;;5054472;28;20055;-62
2022/01/08 11:47:29;;;;;;;15.32;8.05;;;3.10;99.90;;;;;;5054942;28;20052;-63
2022/01/08 11:49:57;;;;;;;15.23;8.18;;;3.10;99.90;;;;;;5048279;28;20050;-61
2022/01/08 11:52:24;;;;;;;21.05;10.27;;;3.20;99.90;;;;;;5051498;28;20045;-63
2022/01/08 11:54:52;;;;;;;14.23;8.40;;;3.20;99.90;;;;;;5054319;28;20055;-63
2022/01/08 11:57:26;;;;;;;18.58;9.02;;;3.20;99.90;;;;;;5055243;28;20093;-60
2022/01/08 11:59:58;;;;;;;19.42;8.00;;;3.30;99.90;;;;;;5054822;28;20448;-63
2022/01/08 12:02:43;;;;;;;19.35;8.93;;;3.30;99.90;;;;;;5054229;28;20045;-63
2022/01/08 12:05:12;;;;;;;21.05;9.55;;;3.30;99.90;;;;;;5054022;28;20048;-62
2022/01/08 12:07:43;;;;;;;18.15;10.38;;;3.30;99.90;;;;;;5054257;28;20037;-63
2022/01/08 12:10:24;;;;;;;19.92;10.32;;;3.40;99.90;;;;;;5054201;28;20211;-62
2022/01/08 12:13:00;;;;;;;20.27;9.90;;;3.40;99.90;;;;;;5054585;28;20123;-62
2022/01/08 12:15:41;;;;;;;21.90;9.88;;;3.40;99.90;;;;;;5054031;28;20136;-64
2022/01/08 12:18:09;;;;;;;17.67;9.55;;;3.40;99.90;;;;;;5069222;28;20068;-63
2022/01/08 12:20:51;;;;;;;18.17;9.25;;;3.40;99.90;;;;;;5052851;28;20048;-63
2022/01/08 12:23:31;;;;;;;19.58;9.52;;;3.40;99.90;;;;;;5053778;28;20128;-63
2022/01/08 12:26:20;;;;;;;15.40;9.77;;;3.40;99.90;;;;;;5053892;28;20538;-63
2022/01/08 12:28:58;;;;;;;17.70;9.95;;;3.40;99.90;;;;;;5048715;28;20041;-64
2022/01/08 12:31:48;;;;;;;18.25;10.70;;;3.40;99.90;;;;;;5044062;28;20080;-64
2022/01/08 12:34:30;;;;;;;17.13;10.77;;;3.50;99.90;;;;;;5042265;28;20071;-65
2022/01/08 12:36:57;;;;;;;19.00;11.15;;;3.50;99.90;;;;;;5043938;28;20561;-64
2022/01/08 12:39:41;;;;;;;21.17;11.07;;;3.40;99.90;;;;;;5033853;28;20049;-64
2022/01/08 12:42:19;;;;;;;20.27;12.35;;;3.40;99.90;;;;;;5034330;28;20045;-64
2022/01/08 12:45:09;;;;;;;21.08;12.65;;;3.50;99.90;;;;;;5033895;28;20064;-64
2022/01/08 12:47:45;;;;;;;22.73;11.95;;;3.40;99.90;;;;;;5033567;28;20107;-64
2022/01/08 12:50:37;;;;;;;20.63;12.35;;;3.40;99.90;;;;;;5033857;28;20448;-64
2022/01/08 12:53:06;;;;;;;19.38;11.80;;;3.40;99.90;;;;;;5033652;28;20132;-63
2022/01/08 12:56:05;;;;;;;20.63;13.05;;;3.30;99.90;;;;;;5033384;28;20057;-63
2022/01/08 12:58:36;;;;;;;21.95;12.27;;;3.30;99.90;;;;;;5033499;28;20049;-63
2022/01/08 13:01:06;;;;;;;18.13;13.25;;;3.30;99.90;;;;;;5033540;28;20128;-63
2022/01/08 13:03:37;;;;;;;18.85;12.20;;;3.30;99.90;;;;;;5034089;28;20053;-63
2022/01/08 13:06:20;;;;;;;19.90;12.52;;;3.30;99.90;;;;;;5034123;28;20045;-63
2022/01/08 13:08:49;;;;;;;20.30;11.90;;;3.30;99.90;;;;;;5033764;28;20049;-64
2022/01/08 13:11:17;;;;;;;17.52;10.35;;;3.30;99.90;;;;;;5033466;28;20413;-62
2022/01/08 13:13:55;;;;;;;16.42;10.85;;;3.50;99.90;;;;;;5032739;28;20052;-63
2022/01/08 13:16:25;;;;;;;19.50;11.32;;;3.30;99.90;;;;;;5040658;28;20363;-63
2022/01/08 13:19:00;;;;;;;20.58;11.07;;;3.30;99.90;;;;;;5050793;28;20052;-64
2022/01/08 13:21:54;;;;;;;17.38;10.10;;;3.30;99.90;;;;;;5048723;28;20040;-64
2022/01/08 13:24:23;;;;;;;19.23;11.02;;;3.30;99.90;;;;;;5049464;28;20068;-64
2022/01/08 13:26:50;;;;;;;22.42;12.15;;;3.30;99.90;;;;;;5049477;28;20381;-64
2022/01/08 13:29:28;;;;;;;22.48;12.30;;;4.00;99.90;;;;;;5076084;28;20046;-65
2022/01/08 13:32:04;;;;;;;36.38;22.73;;;3.30;99.90;;;;;;5043866;28;20049;-65
2022/01/08 13:34:33;;;;;;;19.50;11.35;;;3.30;99.90;;;;;;5040818;28;20045;-61
2022/01/08 13:37:04;;;;;;;17.10;10.70;;;3.30;99.90;;;;;;5033080;28;20482;-62
2022/01/08 13:39:41;;;;;;;20.98;11.73;;;3.30;99.90;;;;;;5041718;28;20428;-62
2022/01/08 13:42:13;;;;;;;16.33;10.18;;;3.40;99.90;;;;;;5046736;28;20048;-63
2022/01/08 13:44:42;;;;;;;17.65;9.93;;;3.40;99.90;;;;;;5036739;28;20061;-62
2022/01/08 13:47:32;;;;;;;15.80;9.52;;;3.30;99.90;;;;;;5043750;28;20049;-63
2022/01/08 13:50:07;;;;;;;13.98;9.10;;;3.30;99.90;;;;;;5049380;28;20052;-63
2022/01/08 13:52:39;;;;;;;14.32;9.18;;;3.30;99.90;;;;;;5042030;28;20199;-63
2022/01/08 13:55:19;;;;;;;13.52;8.80;;;3.30;99.90;;;;;;5036690;28;20041;-63
2022/01/08 13:58:02;;;;;;;13.32;8.27;;;3.30;99.90;;;;;;5036637;28;20486;-63
2022/01/08 14:00:31;;;;;;;14.18;8.30;;;3.30;99.90;;;;;;5056875;28;20515;-61
2022/01/08 14:02:58;;;;;;;11.95;7.55;;;3.20;99.90;;;;;;5047440;28;20041;-62
2022/01/08 14:05:25;;;;;;;10.45;7.22;;;3.20;99.90;;;;;;5045111;28;20048;-63
2022/01/08 14:07:51;;;;;;;15.88;8.35;;;3.20;99.90;;;;;;5043106;28;20117;-63
2022/01/08 14:10:17;;;;;;;;;;;3.20;99.90;;;;;;5035899;28;20068;-64
2022/01/08 14:13:04;;;;;;;11.48;6.70;;;3.20;99.90;;;;;;5036429;28;19921;-65
2022/01/08 14:15:30;;;;;;;11.57;7.00;;;3.20;99.90;;;;;;5049176;28;20041;-62
2022/01/08 14:17:55;;;;;;;12.85;6.50;;;3.20;99.90;;;;;;5055407;28;20119;-63
2022/01/08 14:20:24;;;;;;;11.95;7.20;;;3.20;99.90;;;;;;5046796;28;20037;-62
2022/01/08 14:22:51;;;;;;;14.48;7.95;;;3.30;99.90;;;;;;5045130;28;20037;-63
2022/01/08 14:25:18;;;;;;;13.63;7.95;;;3.20;99.90;;;;;;5046600;28;20078;-61
2022/01/08 14:27:44;;;;;;;13.77;8.75;;;3.20;99.90;;;;;;5045594;28;20489;-65
2022/01/08 14:30:12;;;;;;;16.90;9.07;;;3.20;99.90;;;;;;5045088;28;20067;-61
2022/01/08 14:32:38;;;;;;;16.65;9.13;;;3.20;99.90;;;;;;5050654;28;20084;-62
2022/01/08 14:35:07;;;;;;;15.93;10.30;;;3.20;99.90;;;;;;5055811;28;20045;-63
2022/01/08 14:37:38;;;;;;;17.00;10.15;;;3.10;99.90;;;;;;5055885;28;20056;-63
2022/01/08 14:40:17;;;;;;;20.52;9.65;;;3.10;99.90;;;;;;5056585;28;20057;-63
2022/01/08 14:42:43;;;;;;;20.02;10.52;;;3.10;99.90;;;;;;5047732;28;20489;-64
2022/01/08 14:45:15;;;;;;;18.75;10.48;;;3.10;99.90;;;;;;5046416;28;20041;-62
2022/01/08 14:47:42;;;;;;;15.52;9.82;;;3.10;99.90;;;;;;5056344;28;20053;-63
2022/01/08 14:50:12;;;;;;;17.63;10.32;;;3.10;99.90;;;;;;5055587;28;20085;-63
2022/01/08 14:52:39;;;;;;;19.10;10.75;;;3.10;99.90;;;;;;5055656;28;20131;-63
2022/01/08 14:55:07;;;;;;;19.13;11.38;;;3.10;99.90;;;;;;5055893;28;20052;-62
2022/01/08 14:57:33;;;;;;;19.55;10.90;;;3.10;99.90;;;;;;5056461;28;20115;-62
2022/01/08 15:00:00;;;;;;;19.95;11.38;;;3.00;99.90;;;;;;5055779;28;20045;-63
2022/01/08 15:02:27;;;;;;;22.15;12.65;;;3.00;99.90;;;;;;5055474;28;20053;-62
2022/01/08 15:04:52;;;;;;;23.50;14.57;;;2.90;99.90;;;;;;5054089;28;20120;-62
2022/01/08 15:07:19;;;;;;;25.70;12.85;;;2.90;99.90;;;;;;5044918;28;20125;-62
2022/01/08 15:09:44;;;;;;;;;;;2.90;99.90;;;;;;5044496;28;20049;-63
2022/01/08 15:12:10;;;;;;;26.63;12.93;;;2.80;99.90;;;;;;5045717;28;19932;-62
2022/01/08 15:14:36;;;;;;;20.98;12.38;;;2.80;99.90;;;;;;5044425;28;20041;-63
2022/01/08 15:17:02;;;;;;;;;;;2.80;99.90;;;;;;5044649;28;20090;-62
2022/01/08 15:19:28;;;;;;;19.42;11.07;;;2.80;99.90;;;;;;5045682;28;19921;-62
2022/01/08 15:21:54;;;;;;;20.00;10.07;;;2.80;99.90;;;;;;5043814;28;20053;-64
2022/01/08 15:24:19;;;;;;;19.77;9.52;;;2.80;99.90;;;;;;5046338;28;20513;-63
2022/01/08 15:26:45;;;;;;;14.82;8.77;;;2.70;99.90;;;;;;5041881;28;20049;-63
2022/01/08 15:29:11;;;;;;;14.52;7.15;;;2.80;99.90;;;;;;5043587;28;20130;-63
2022/01/08 15:31:37;;;;;;;15.75;8.40;;;2.70;99.90;;;;;;5042339;28;20041;-63
2022/01/08 15:34:04;;;;;;;13.60;7.65;;;2.70;99.90;;;;;;5043850;28;20392;-62
2022/01/08 15:36:32;;;;;;;14.95;7.78;;;2.70;99.90;;;;;;5045262;28;20396;-62
2022/01/08 15:38:57;;;;;;;13.25;7.38;;;2.90;99.90;;;;;;5044219;28;20103;-62
2022/01/08 15:41:23;;;;;;;14.80;6.70;;;2.70;99.90;;;;;;5043779;28;20049;-62
2022/01/08 15:43:49;;;;;;;14.48;7.15;;;2.60;99.90;;;;;;5044196;28;20162;-62
2022/01/08 15:46:14;;;;;;;14.90;7.80;;;2.70;99.90;;;;;;5043589;28;20057;-63
2022/01/08 15:48:40;;;;;;;16.52;7.93;;;2.60;99.90;;;;;;5043776;28;20047;-62
2022/01/08 15:51:06;;;;;;;12.98;7.32;;;2.60;99.90;;;;;;5045107;28;20041;-62
2022/01/08 15:53:31;;;;;;;12.13;6.65;;;2.60;99.90;;;;;;5044918;28;20119;-62
2022/01/08 15:55:57;;;;;;;14.00;7.60;;;2.60;99.90;;;;;;5048885;28;20060;-62
2022/01/08 15:58:23;;;;;;;13.85;6.97;;;2.60;99.90;;;;;;5053335;28;20110;-63
2022/01/08 16:00:48;;;;;;;14.13;7.05;;;2.60;99.90;;;;;;5052816;28;20111;-62
2022/01/08 16:03:16;;;;;;;14.00;7.80;;;2.90;99.90;;;;;;5054033;28;20060;-62
2022/01/08 16:05:42;;;;;;;15.45;7.43;;;2.60;99.90;;;;;;5053705;28;20045;-62
2022/01/08 16:08:07;;;;;;;12.02;7.38;;;2.60;99.90;;;;;;5053812;28;20102;-62
2022/01/08 16:10:33;;;;;;;17.02;7.38;;;2.60;99.90;;;;;;5054153;28;20051;-62
2022/01/08 16:12:59;;;;;;;12.60;6.88;;;2.60;99.90;;;;;;5053687;28;20049;-62
2022/01/08 16:15:25;;;;;;;15.43;7.15;;;2.70;99.90;;;;;;5053966;28;20123;-62
2022/01/08 16:17:50;;;;;;;14.02;7.10;;;2.70;99.90;;;;;;5054093;28;20051;-62
2022/01/08 16:20:17;;;;;;;12.70;6.75;;;2.70;99.90;;;;;;5054020;28;20048;-62
2022/01/08 16:22:42;;;;;;;;;;;2.70;99.90;;;;;;5054127;28;20451;-62
2022/01/08 16:25:09;;;;;;;10.82;6.70;;;2.70;99.90;;;;;;5052728;28;19920;-63
2022/01/08 16:27:35;;;;;;;11.35;6.88;;;2.70;99.90;;;;;;5085907;28;20052;-64
2022/01/08 16:30:01;;;;;;;11.82;6.43;;;2.80;99.90;;;;;;5053900;28;20049;-62
2022/01/08 16:32:27;;;;;;;12.70;6.75;;;2.80;99.90;;;;;;5054610;28;20043;-62
2022/01/08 16:34:53;;;;;;;11.73;6.72;;;2.80;99.90;;;;;;5053871;28;20481;-62
2022/01/08 16:37:18;;;;;;;12.57;8.18;;;2.80;99.90;;;;;;5052590;28;20573;-62
2022/01/08 16:39:44;;;;;;;10.98;6.20;;;2.80;99.90;;;;;;5054251;28;20135;-62
2022/01/08 16:42:10;;;;;;;14.63;6.95;;;2.80;99.90;;;;;;5053729;28;20052;-62
2022/01/08 16:44:36;;;;;;;11.23;6.50;;;2.80;99.90;;;;;;5086496;28;20087;-61
2022/01/08 16:47:03;;;;;;;9.07;6.32;;;2.80;99.90;;;;;;5050170;28;20037;-62
2022/01/08 16:49:30;;;;;;;12.40;6.68;;;2.80;99.90;;;;;;5072542;28;20121;-62
2022/01/08 16:51:56;;;;;;;13.32;7.38;;;2.80;99.90;;;;;;5074171;28;20057;-63
2022/01/08 16:54:21;;;;;;;14.48;7.78;;;3.00;99.90;;;;;;5056813;28;20053;-63
2022/01/08 16:56:47;;;;;;;12.63;7.10;;;2.80;99.90;;;;;;5053057;28;20063;-63
2022/01/08 16:59:14;;;;;;;12.52;7.80;;;2.80;99.90;;;;;;5052459;28;20068;-61
2022/01/08 17:01:40;;;;;;;12.73;7.00;;;2.80;99.90;;;;;;5053557;28;20385;-62
2022/01/08 17:04:06;;;;;;;11.13;7.40;;;3.00;99.90;;;;;;5053397;28;20071;-62
2022/01/08 17:06:32;;;;;;;11.43;7.30;;;2.80;99.90;;;;;;5047054;28;20497;-61
2022/01/08 17:08:58;;;;;;;11.40;7.40;;;2.80;99.90;;;;;;5043834;28;20048;-62
2022/01/08 17:11:24;;;;;;;11.27;7.18;;;2.90;99.90;;;;;;5041306;28;20429;-64
2022/01/08 17:13:49;;;;;;;10.77;6.65;;;2.90;99.90;;;;;;5038357;28;20041;-62
2022/01/08 17:16:15;;;;;;;11.82;6.85;;;2.90;99.90;;;;;;5041575;28;20430;-63
2022/01/08 17:18:41;;;;;;;23.52;14.23;;;2.90;99.90;;;;;;5038370;28;20553;-62
2022/01/08 17:21:07;;;;;;;12.27;8.40;;;2.90;99.90;;;;;;5038006;28;20431;-63
2022/01/08 17:23:33;;;;;;;12.13;8.55;;;2.90;99.90;;;;;;5054279;28;20045;-62
2022/01/08 17:26:00;;;;;;;10.20;7.22;;;2.90;99.90;;;;;;5058022;28;20044;-62
2022/01/08 17:28:28;;;;;;;11.20;8.57;;;2.90;99.90;;;;;;5049802;28;20123;-63
2022/01/08 17:30:54;;;;;;;10.13;7.47;;;2.90;99.90;;;;;;5046035;28;20545;-62
2022/01/08 17:33:20;;;;;;;10.80;6.88;;;2.90;99.90;;;;;;5048239;28;20049;-62
2022/01/08 17:35:46;;;;;;;8.45;5.80;;;2.90;99.90;;;;;;5089620;28;20040;-61
2022/01/08 17:38:12;;;;;;;9.55;6.35;;;2.90;99.90;;;;;;5057100;28;20041;-61
2022/01/08 17:40:39;;;;;;;11.45;6.18;;;2.90;99.90;;;;;;5056966;28;20048;-61
2022/01/08 17:43:06;;;;;;;8.20;5.97;;;2.90;99.90;;;;;;5040891;28;20045;-62
2022/01/08 17:45:32;;;;;;;11.18;7.03;;;2.90;99.90;;;;;;5036867;28;20505;-62
2022/01/08 17:48:01;;;;;;;9.35;6.40;;;3.00;99.90;;;;;;5035552;28;20497;-61
2022/01/08 17:50:32;;;;;;;10.00;6.22;;;3.10;99.90;;;;;;5035102;28;20040;-62
2022/01/08 17:52:58;;;;;;;8.07;5.80;;;3.00;99.90;;;;;;5045844;28;20052;-62
2022/01/08 17:55:25;;;;;;;9.30;6.22;;;3.00;99.90;;;;;;5045778;28;20049;-63
2022/01/08 17:57:50;;;;;;;;;;;3.00;99.90;;;;;;5047644;28;20059;-61
2022/01/08 18:00:19;;;;;;;9.63;6.43;;;3.00;99.90;;;;;;5044193;28;19921;-62
2022/01/08 18:02:45;;;;;;;8.88;6.35;;;3.10;99.90;;;;;;5035573;28;20064;-63
2022/01/08 18:05:13;;;;;;;9.65;7.05;;;3.20;99.90;;;;;;5040270;28;20045;-61
2022/01/08 18:07:39;;;;;;;9.50;6.32;;;3.10;99.90;;;;;;5042709;28;20045;-61
2022/01/08 18:10:07;;;;;;;10.30;7.07;;;3.10;99.90;;;;;;5036190;28;20091;-61
2022/01/08 18:12:33;;;;;;;9.10;6.40;;;3.10;99.90;;;;;;5036576;28;20053;-62
2022/01/08 18:14:58;;;;;;;7.90;5.97;;;3.20;99.90;;;;;;5035440;28;20053;-62
2022/01/08 18:17:24;;;;;;;8.45;6.15;;;3.20;99.90;;;;;;5036602;28;20136;-62
2022/01/08 18:19:51;;;;;;;11.02;6.85;;;3.20;99.90;;;;;;5036375;28;20080;-62
2022/01/08 18:22:18;;;;;;;10.52;7.18;;;3.20;99.90;;;;;;5036782;28;20128;-62
2022/01/08 18:24:43;;;;;;;9.80;6.93;;;3.20;99.90;;;;;;5036168;28;20132;-62
2022/01/08 18:27:09;;;;;;;10.27;7.35;;;3.20;99.90;;;;;;5035963;28;20120;-62
2022/01/08 18:29:36;;;;;;;9.27;7.22;;;3.20;99.90;;;;;;5036258;28;20049;-62
2022/01/08 18:32:02;;;;;;;11.23;7.10;;;3.20;99.90;;;;;;5036090;28;20064;-62
2022/01/08 18:34:28;;;;;;;9.50;6.22;;;3.20;99.90;;;;;;5036068;28;20045;-61
2022/01/08 18:36:56;;;;;;;10.65;7.45;;;3.30;99.90;;;;;;5035707;28;20096;-63
2022/01/08 18:39:22;;;;;;;9.55;6.68;;;3.30;99.90;;;;;;5035679;28;20551;-62
2022/01/08 18:41:47;;;;;;;9.68;7.07;;;3.30;99.90;;;;;;5034938;28;20501;-61
2022/01/08 18:44:13;;;;;;;11.85;9.75;;;3.40;99.90;;;;;;5036465;28;20087;-63
2022/01/08 18:46:39;;;;;;;22.73;15.88;;;3.30;99.90;;;;;;5036524;28;20103;-61
2022/01/08 18:49:05;;;;;;;11.48;8.55;;;3.30;99.90;;;;;;5035851;28;20064;-62
2022/01/08 18:51:30;;;;;;;9.70;7.60;;;3.30;99.90;;;;;;5035770;28;20049;-61
2022/01/08 18:53:56;;;;;;;12.23;8.48;;;3.30;99.90;;;;;;5035612;28;20049;-62
2022/01/08 18:56:23;;;;;;;9.50;7.40;;;3.30;99.90;;;;;;5035219;28;20207;-61
2022/01/08 18:58:49;;;;;;;11.00;7.65;;;3.30;99.90;;;;;;5035662;28;20049;-61
2022/01/08 19:01:14;;;;;;;11.27;7.85;;;3.50;99.90;;;;;;5036151;28;20045;-62
2022/01/08 19:03:40;;;;;;;11.45;8.57;;;3.40;99.90;;;;;;5035943;28;20041;-62
2022/01/08 19:06:06;;;;;;;12.02;9.30;;;3.40;99.90;;;;;;5035457;28;20049;-62
2022/01/08 19:08:32;;;;;;;10.05;7.93;;;3.40;99.90;;;;;;5035978;28;20064;-63
2022/01/08 19:10:58;;;;;;;11.40;7.97;;;3.50;99.90;;;;;;5034445;28;20080;-62
2022/01/08 19:13:24;;;;;;;13.20;8.82;;;3.60;99.90;;;;;;5036184;28;20091;-63
2022/01/08 19:15:49;;;;;;;12.57;8.52;;;3.50;99.90;;;;;;5035453;28;20378;-63
2022/01/08 19:18:15;;;;;;;13.70;9.48;;;3.50;99.90;;;;;;5035811;28;20088;-63
2022/01/08 19:20:41;;;;;;;12.77;9.52;;;3.50;99.90;;;;;;5035251;28;20100;-61
2022/01/08 19:23:07;;;;;;;14.00;9.90;;;3.50;99.90;;;;;;5035421;28;20067;-61
2022/01/08 19:25:37;;;;;;;15.52;10.27;;;3.50;99.90;;;;;;5035043;28;20141;-61
2022/01/08 19:28:04;;;;;;;16.15;9.90;;;3.60;99.90;;;;;;5035551;28;20428;-62
2022/01/08 19:30:30;;;;;;;12.77;9.30;;;3.50;99.90;;;;;;5034071;28;20084;-62
2022/01/08 19:32:56;;;;;;;16.05;10.68;;;3.70;99.90;;;;;;5035054;28;20496;-62
2022/01/08 19:35:21;;;;;;;14.43;9.82;;;3.60;99.90;;;;;;5034897;28;20045;-61
2022/01/08 19:37:47;;;;;;;13.15;9.95;;;3.60;99.90;;;;;;5035693;28;20053;-61
2022/01/08 19:40:13;;;;;;;13.98;9.98;;;3.60;99.90;;;;;;5034073;28;20136;-61
2022/01/08 19:42:39;;;;;;;12.82;9.30;;;3.60;99.90;;;;;;5034742;28;20045;-62
2022/01/08 19:45:05;;;;;;;16.73;11.93;;;3.60;99.90;;;;;;5034820;28;20048;-62
2022/01/08 19:47:31;;;;;;;19.15;13.10;;;3.70;99.90;;;;;;5033523;28;20041;-61
2022/01/08 19:49:57;;;;;;;14.13;10.90;;;3.60;99.90;;;;;;5034983;28;20056;-62
2022/01/08 19:52:24;;;;;;;13.02;9.98;;;3.70;99.90;;;;;;5034616;28;20500;-61
2022/01/08 19:54:50;;;;;;;14.32;9.80;;;3.70;99.90;;;;;;5034501;28;20052;-61
2022/01/08 19:57:18;;;;;;;;;;;3.70;99.90;;;;;;5016887;28;20054;-62
2022/01/08 19:59:47;;;;;;;14.60;9.65;;;3.80;99.90;;;;;;5034144;28;20381;-62
2022/01/08 20:02:13;;;;;;;14.60;10.27;;;3.80;99.90;;;;;;5034440;28;20049;-61
2022/01/08 20:04:39;;;;;;;12.65;9.75;;;3.70;99.90;;;;;;5034864;28;20494;-62
2022/01/08 20:07:07;;;;;;;14.88;9.90;;;3.80;99.90;;;;;;5033424;28;20136;-62
2022/01/08 20:09:33;;;;;;;13.85;10.15;;;3.80;99.90;;;;;;5034693;28;20100;-61
2022/01/08 20:12:00;;;;;;;15.38;10.75;;;4.10;99.90;;;;;;5035081;28;20100;-61
2022/01/08 20:14:26;;;;;;;15.20;9.98;;;3.80;99.90;;;;;;5034131;28;20048;-61
2022/01/08 20:16:51;;;;;;;15.48;10.85;;;3.90;99.90;;;;;;5034354;28;20041;-61
2022/01/08 20:19:17;;;;;;;16.23;11.40;;;3.80;99.90;;;;;;5035016;28;20076;-61
2022/01/08 20:21:44;;;;;;;12.75;9.57;;;3.90;99.90;;;;;;5034108;28;20409;-61
2022/01/08 20:24:10;;;;;;;13.65;10.05;;;3.90;99.90;;;;;;5034485;28;20060;-61
2022/01/08 20:26:36;;;;;;;;;;;3.90;99.90;;;;;;5034392;28;20080;-61
2022/01/08 20:29:02;;;;;;;15.43;10.90;;;3.90;99.90;;;;;;5033870;28;19956;-61
2022/01/08 20:31:28;;;;;;;16.27;12.23;;;3.90;99.90;;;;;;5033953;28;20494;-61
2022/01/08 20:33:54;;;;;;;19.65;12.55;;;3.90;99.90;;;;;;5032896;28;20083;-62
2022/01/08 20:36:20;;;;;;;20.98;16.00;;;4.00;99.90;;;;;;5033850;28;20046;-61
2022/01/08 20:38:45;;;;;;;18.27;12.02;;;4.00;99.90;;;;;;5033702;28;20045;-61
2022/01/08 20:41:12;;;;;;;16.80;11.07;;;4.00;99.90;;;;;;5033795;28;20481;-61
2022/01/08 20:43:38;;;;;;;16.25;11.23;;;4.00;99.90;;;;;;5033333;28;20502;-61
2022/01/08 20:46:04;;;;;;;15.55;11.10;;;4.00;99.90;;;;;;5032351;28;20129;-62
2022/01/08 20:48:30;;;;;;;15.18;11.18;;;4.00;99.90;;;;;;5033686;28;20068;-61
2022/01/08 20:50:58;;;;;;;;;;;4.10;99.90;;;;;;5033936;28;20046;-61
2022/01/08 20:53:25;;;;;;;16.40;11.00;;;4.10;99.90;;;;;;5036239;28;19972;-62
2022/01/08 20:55:50;;;;;;;;;;;4.00;99.90;;;;;;5033674;28;20131;-61
2022/01/08 20:58:16;;;;;;;14.98;11.18;;;4.20;99.90;;;;;;5033629;28;19982;-61
2022/01/08 21:00:42;;;;;;;14.50;10.70;;;4.20;99.90;;;;;;5034124;28;20046;-61
2022/01/08 21:03:07;;;;;;;15.00;11.50;;;4.10;99.90;;;;;;5033637;28;20046;-61
2022/01/08 21:05:33;;;;;;;15.23;11.98;;;4.10;99.90;;;;;;5032420;28;20049;-61
2022/01/08 21:07:59;;;;;;;19.55;14.65;;;4.20;99.90;;;;;;5033609;28;20045;-61
2022/01/08 21:10:25;;;;;;;15.75;12.13;;;4.20;99.90;;;;;;5033483;28;20049;-62
2022/01/08 21:12:50;;;;;;;16.00;12.95;;;4.20;99.90;;;;;;5034065;28;20042;-61
2022/01/08 21:15:16;;;;;;;13.73;11.02;;;4.10;99.90;;;;;;5032311;28;20057;-61
2022/01/08 21:17:43;;;;;;;13.07;10.80;;;4.20;99.90;;;;;;5033412;28;20100;-61
2022/01/08 21:20:12;;;;;;;15.40;11.98;;;4.20;99.90;;;;;;5033447;28;20087;-61
2022/01/08 21:22:38;;;;;;;13.05;11.02;;;4.20;99.90;;;;;;5033409;28;20379;-61
2022/01/08 21:25:05;;;;;;;13.25;9.88;;;4.20;99.90;;;;;;5033284;28;20057;-62
2022/01/08 21:27:31;;;;;;;13.80;10.05;;;4.20;99.90;;;;;;5033349;28;20052;-62
2022/01/08 21:29:58;;;;;;;17.77;10.73;;;4.20;99.90;;;;;;5032366;28;20612;-61
2022/01/08 21:32:24;;;;;;;14.35;9.98;;;4.20;99.90;;;;;;5033579;28;20600;-63
2022/01/08 21:34:52;;;;;;;;;;;4.40;99.90;;;;;;5033589;28;20168;-61
2022/01/08 21:37:17;;;;;;;12.35;9.27;;;4.30;99.90;;;;;;5033241;28;19944;-61
2022/01/08 21:39:44;;;;;;;11.65;9.32;;;4.20;99.90;;;;;;5033223;28;20482;-61
2022/01/08 21:42:09;;;;;;;;;;;4.20;99.90;;;;;;5033628;28;20041;-61
2022/01/08 21:44:35;;;;;;;58.33;41.10;;;4.30;99.90;;;;;;5032314;28;19943;-61
2022/01/08 21:47:04;;;;;;;24.58;18.48;;;4.30;99.90;;;;;;5032929;28;20037;-61
2022/01/08 21:49:30;;;;;;;13.10;9.93;;;4.30;99.90;;;;;;5033441;28;20452;-61
2022/01/08 21:51:59;;;;;;;12.27;10.63;;;4.30;99.90;;;;;;5033188;28;20053;-62
2022/01/08 21:54:25;;;;;;;14.18;10.50;;;4.50;99.90;;;;;;5033081;28;20064;-62
2022/01/08 21:56:51;;;;;;;11.27;8.80;;;4.40;99.90;;;;;;5033128;28;20397;-61